Aérodrome :
LOGIN :

S'inscrire | Disclaimer

   EN    FR    IT 

 










Légende :    VFR   VFR Marginal   IFR   IFR Intensif   IFR Très Intensif
Visi : 
Plafond : 
>= 8 km
>= 3000ft
5 à 8 km
1000 à 3000 ft
1500m à 5 km
500 à 1000 ft
800 à 1500m
200 à 500 ft
< 800m
< 200 ft
Symboles :   Orages  Brouillard  Fortes neiges  Fortes précipitations  Vent > 20 kt
SIGMETs :   Divers  Orages  Givrage  Turbulence  Onde Orograph.  Cendres Volcan.






- Altitude de l'aérodrome : 459 ft
- Code IATA : CER


LFRC - Cherbourg / Maupertus

DERNIER METAR :
  • 071000Z AUTO 33005KT 270V020 9999 SCT014 BKN062 14/09 Q1010

METARs EXPIRÉS :
  • 070930Z AUTO 32007KT 290V360 9999 SCT014 BKN066 13/09 Q1010
  • 070900Z AUTO 31007KT 280V350 9999 BKN014 BKN066 14/10 Q1009
  • 070830Z AUTO 31007KT 280V350 9999 OVC013 13/10 Q1009
  • 070800Z AUTO 31007KT 280V360 9999 BKN012 13/09 Q1009
  • 070730Z AUTO 30007KT 270V350 9999 BKN011 14/10 Q1009

Prévision TAF périmée.



MET'MAP, la Météo Aéronautique d'un coup d'oeil ! - Copyright ORBIFLY Décembre 2007 - Disclaimer

ORBIFLY MET'MAP TEAM :

Programmation & Développement : Alexandra Zaïnal
Sur une idée originale de : Baudouin d'Aumeries
Assistance à la programmation : Marc-Olivier Méhu
Soutien technique & logistique : Manuel Goepfert

Contact : metmap@orbifly.com




SOURCES & CREDITS :

   NOAA